Time;durP1;ratioP1;P1;durP2;ratioP2;P2;SDS_P1;SDS_P2;PMS_P1;PMS_P2;Temp;Humidity;BMP_temperature;BMP_pressure;BME280_temperature;BME280_humidity;BME280_pressure;Samples;Min_cycle;Max_cycle;Signal;HPM_P1;HPM_P2
2023/04/21 00:02:14;;;;;;;1999.90;999.90;;;;;;;7.50;100.00;94467.81;4968922;28;20211;-59
2023/04/21 00:04:40;;;;;;;1999.90;999.90;;;;;;;7.52;100.00;94460.03;4985402;28;20212;-60
2023/04/21 00:07:05;;;;;;;1999.90;999.90;;;;;;;7.56;100.00;94449.13;4985138;28;20196;-59
2023/04/21 00:09:31;;;;;;;1999.90;999.90;;;;;;;7.57;100.00;94450.69;4985698;28;20196;-59
2023/04/21 00:11:56;;;;;;;1999.90;999.90;;;;;;;7.55;100.00;94442.16;4985503;28;20200;-59
2023/04/21 00:14:21;;;;;;;1999.90;999.90;;;;;;;7.57;100.00;94445.25;4968944;28;20196;-59
2023/04/21 00:16:51;;;;;;;1999.90;999.90;;;;;;;7.60;100.00;94439.75;4985113;28;20289;-59
2023/04/21 00:19:17;;;;;;;1999.90;999.90;;;;;;;7.61;100.00;94441.28;4985264;28;20222;-59
2023/04/21 00:21:42;;;;;;;1999.90;999.90;;;;;;;7.60;100.00;94445.19;4985025;28;20204;-60
2023/04/21 00:24:08;;;;;;;1999.90;999.90;;;;;;;7.62;100.00;94436.66;4969243;28;20197;-59
2023/04/21 00:26:33;;;;;;;1999.90;999.90;;;;;;;7.65;100.00;94455.59;4984908;28;20207;-59
2023/04/21 00:28:58;;;;;;;1999.90;999.90;;;;;;;7.75;100.00;94457.41;4985498;28;20203;-60
2023/04/21 00:31:24;;;;;;;1999.90;999.90;;;;;;;7.78;100.00;94462.03;4985365;28;20283;-60
2023/04/21 00:33:49;;;;;;;1999.90;999.90;;;;;;;7.74;100.00;94469.47;4968895;28;20181;-59
2023/04/21 00:36:15;;;;;;;1999.90;999.90;;;;;;;7.66;100.00;94470.75;4968820;28;20210;-59
2023/04/21 00:38:40;;;;;;;1999.90;999.90;;;;;;;7.67;100.00;94460.63;4985255;28;20216;-59
2023/04/21 00:41:06;;;;;;;1999.90;999.90;;;;;;;7.68;100.00;94454.78;4985038;28;20203;-59
2023/04/21 00:43:31;;;;;;;1999.90;999.90;;;;;;;7.68;100.00;94457.50;4985287;28;20263;-59
2023/04/21 00:45:56;;;;;;;1999.90;999.90;;;;;;;7.68;100.00;94457.50;4985068;28;20196;-59
2023/04/21 00:48:22;;;;;;;1999.90;999.90;;;;;;;7.67;100.00;94445.09;4984746;28;20227;-59
2023/04/21 00:50:47;;;;;;;1999.90;999.90;;;;;;;7.68;100.00;94446.66;4984876;28;20196;-59
2023/04/21 00:53:14;;;;;;;1999.90;999.90;;;;;;;7.65;100.00;94447.44;4984903;28;20220;-59
2023/04/21 00:55:40;;;;;;;1999.90;999.90;;;;;;;7.69;100.00;94450.13;4984701;28;20192;-59
2023/04/21 00:58:06;;;;;;;1999.90;999.90;;;;;;;7.67;100.00;94450.53;4984848;28;20257;-59
2023/04/21 01:00:31;;;;;;;1999.90;999.90;;;;;;;7.66;100.00;94451.72;4985355;28;20233;-59
2023/04/21 01:02:58;;;;;;;1999.90;999.90;;;;;;;7.70;100.00;94440.81;4968511;28;20192;-60
2023/04/21 01:05:24;;;;;;;1999.90;999.90;;;;;;;7.69;100.00;94425.69;4969033;28;20208;-59
2023/04/21 01:07:49;;;;;;;1999.90;999.90;;;;;;;7.69;100.00;94434.63;4985220;28;20204;-59
2023/04/21 01:10:14;;;;;;;1999.90;999.90;;;;;;;7.75;100.00;94446.56;4985044;28;20211;-59
2023/04/21 01:12:44;;;;;;;1999.90;999.90;;;;;;;7.76;100.00;94437.22;4984729;28;20203;-60
2023/04/21 01:15:15;;;;;;;1999.90;999.90;;;;;;;7.79;100.00;94436.41;4984616;28;20267;-59
2023/04/21 01:17:41;;;;;;;1999.90;999.90;;;;;;;7.79;100.00;94436.41;4984659;28;20212;-61
2023/04/21 01:20:12;;;;;;;1999.90;999.90;;;;;;;7.82;100.00;94441.03;4984659;28;20192;-59
2023/04/21 01:22:39;;;;;;;1999.90;999.90;;;;;;;7.83;100.00;94442.56;4984680;28;20271;-59
2023/04/21 01:25:04;;;;;;;1999.90;999.90;;;;;;;7.84;100.00;94454.22;4986421;28;20208;-59
2023/04/21 01:27:30;;;;;;;1999.90;999.90;;;;;;;7.85;100.00;94456.53;4988540;28;20219;-59
2023/04/21 01:29:55;;;;;;;1999.90;999.90;;;;;;;7.86;100.00;94457.31;4987996;28;20192;-60
2023/04/21 01:32:24;;;;;;;1999.90;999.90;;;;;;;7.84;100.00;94457.72;4988145;28;20200;-60
2023/04/21 01:34:49;;;;;;;1999.90;999.90;;;;;;;7.84;100.00;94465.88;4988249;28;20196;-59
2023/04/21 01:37:18;;;;;;;1999.90;999.90;;;;;;;7.85;100.00;94467.41;4988213;28;20204;-59
2023/04/21 01:39:46;;;;;;;1999.90;999.90;;;;;;;7.83;100.00;94477.88;4988157;28;20200;-59
2023/04/21 01:42:12;;;;;;;1999.90;999.90;;;;;;;7.83;100.00;94480.59;4988478;28;20201;-59
2023/04/21 01:44:38;;;;;;;1999.90;999.90;;;;;;;7.82;100.00;94484.50;4988413;28;20196;-59
2023/04/21 01:47:04;;;;;;;1999.90;999.90;;;;;;;7.83;100.00;94496.91;4988057;28;20200;-60
2023/04/21 01:49:30;;;;;;;1999.90;999.90;;;;;;;7.80;100.00;94503.19;4987989;28;20200;-60
2023/04/21 01:51:55;;;;;;;1999.90;999.90;;;;;;;7.79;100.00;94507.06;4988328;28;20206;-59
2023/04/21 01:54:20;;;;;;;1999.90;999.90;;;;;;;7.80;100.00;94502.41;4987959;28;20196;-60
2023/04/21 01:56:46;;;;;;;1999.90;999.90;;;;;;;7.78;100.00;94502.81;4987999;28;20196;-59
2023/04/21 01:59:11;;;;;;;1999.90;999.90;;;;;;;7.76;100.00;94502.44;4987527;28;20212;-60
2023/04/21 02:01:37;;;;;;;1999.90;999.90;;;;;;;7.79;100.00;94504.34;4971578;28;20172;-59
2023/04/21 02:04:03;;;;;;;1999.90;999.90;;;;;;;7.76;100.00;94501.69;4971364;28;20199;-60
2023/04/21 02:06:30;;;;;;;1999.90;999.90;;;;;;;7.75;100.00;94511.00;4987778;28;20236;-59
2023/04/21 02:08:56;;;;;;;1999.90;999.90;;;;;;;7.73;100.00;94514.13;4987840;28;20232;-59
2023/04/21 02:11:23;;;;;;;1999.90;999.90;;;;;;;7.69;100.00;94518.84;4987750;28;20204;-59
2023/04/21 02:13:49;;;;;;;1999.90;999.90;;;;;;;7.62;100.00;94513.50;4988097;28;20211;-59
2023/04/21 02:16:14;;;;;;;1999.90;999.90;;;;;;;7.60;100.00;94499.53;4971434;28;20200;-59
2023/04/21 02:18:40;;;;;;;1999.90;999.90;;;;;;;7.61;100.00;94495.63;4987313;28;20216;-59
2023/04/21 02:21:06;;;;;;;1999.90;999.90;;;;;;;7.59;100.00;94489.06;4987464;28;20204;-58
2023/04/21 02:23:31;;;;;;;1999.90;999.90;;;;;;;7.56;100.00;94473.56;4971410;28;20235;-58
2023/04/21 02:25:57;;;;;;;1999.90;999.90;;;;;;;7.56;100.00;94463.50;4987403;28;20223;-59
2023/04/21 02:28:22;;;;;;;1999.90;999.90;;;;;;;7.54;100.00;94441.38;4971512;28;20279;-59
2023/04/21 02:30:47;;;;;;;1999.90;999.90;;;;;;;7.50;100.00;94434.47;4971707;28;20176;-59
2023/04/21 02:33:13;;;;;;;1999.90;999.90;;;;;;;7.50;100.00;94421.66;4987642;28;20230;-59
2023/04/21 02:35:38;;;;;;;1999.90;999.90;;;;;;;7.51;100.00;94417.78;4987468;28;20273;-59
2023/04/21 02:38:06;;;;;;;1999.90;999.90;;;;;;;7.51;100.00;94406.91;4986357;28;20334;-59
2023/04/21 02:40:31;;;;;;;1999.90;999.90;;;;;;;7.52;100.00;94399.50;4970687;28;20214;-59
2023/04/21 02:42:57;;;;;;;1999.90;999.90;;;;;;;7.52;100.00;94385.94;4987032;28;20248;-59
2023/04/21 02:45:22;;;;;;;1999.90;999.90;;;;;;;7.51;100.00;94377.03;4986794;28;20222;-59
2023/04/21 02:47:47;;;;;;;1999.90;999.90;;;;;;;7.45;100.00;94375.16;4987012;28;20297;-59
2023/04/21 02:50:13;;;;;;;1999.90;999.90;;;;;;;7.41;100.00;94361.63;4986998;28;20193;-59
2023/04/21 02:52:38;;;;;;;1999.90;999.90;;;;;;;7.47;100.00;94351.09;4986685;28;20203;-59
2023/04/21 02:55:04;;;;;;;1999.90;999.90;;;;;;;7.45;100.00;94339.84;4986662;28;20268;-59
2023/04/21 02:57:29;;;;;;;1999.90;999.90;;;;;;;7.49;100.00;94348.72;4970835;28;20220;-59
2023/04/21 02:59:55;;;;;;;1999.90;999.90;;;;;;;7.52;100.00;94347.91;4986838;28;20193;-59
2023/04/21 03:02:20;;;;;;;1999.90;999.90;;;;;;;7.52;100.00;94356.84;4971003;28;20179;-59
2023/04/21 03:04:45;;;;;;;1999.90;999.90;;;;;;;7.53;100.00;94358.34;4987085;28;20204;-59
2023/04/21 03:07:14;;;;;;;1999.90;999.90;;;;;;;7.55;100.00;94350.59;4986660;28;20207;-59
2023/04/21 03:09:40;;;;;;;1999.90;999.90;;;;;;;7.56;100.00;94349.41;4986497;28;20196;-59
2023/04/21 03:12:05;;;;;;;1999.90;999.90;;;;;;;7.55;100.00;94344.38;4986484;28;20223;-59
2023/04/21 03:14:30;;;;;;;1999.90;999.90;;;;;;;7.41;100.00;94344.56;4986388;28;20275;-59
2023/04/21 03:16:56;;;;;;;1999.90;999.90;;;;;;;7.32;100.00;94347.78;4986281;28;20196;-59
2023/04/21 03:19:21;;;;;;;1999.90;999.90;;;;;;;7.29;100.00;94336.97;4986170;28;20222;-59
2023/04/21 03:21:46;;;;;;;1999.90;999.90;;;;;;;7.34;100.00;94322.94;4986360;28;20188;-59
2023/04/21 03:24:12;;;;;;;1999.90;999.90;;;;;;;7.34;100.00;94312.84;4986134;28;20197;-59
2023/04/21 03:26:39;;;;;;;1999.90;999.90;;;;;;;7.29;100.00;94348.59;4986593;28;20278;-59
2023/04/21 03:29:05;;;;;;;1999.90;999.90;;;;;;;7.28;100.00;94328.03;4986557;28;20202;-59
2023/04/21 03:31:30;;;;;;;1999.90;999.90;;;;;;;7.24;100.00;94313.75;4985713;28;20274;-59
2023/04/21 03:33:55;;;;;;;1999.90;999.90;;;;;;;7.18;100.00;94296.41;4986601;28;20247;-59
2023/04/21 03:36:21;;;;;;;1999.90;999.90;;;;;;;7.08;100.00;94231.38;4985915;28;20266;-59
2023/04/21 03:38:46;;;;;;;1999.90;999.90;;;;;;;7.23;100.00;94211.00;4986231;28;20219;-59
2023/04/21 03:41:11;;;;;;;1999.90;999.90;;;;;;;7.17;100.00;94205.25;4985897;28;20196;-59
2023/04/21 03:43:37;;;;;;;1999.90;999.90;;;;;;;7.04;100.00;94198.09;4985832;28;20247;-59
2023/04/21 03:46:02;;;;;;;1999.90;999.90;;;;;;;7.09;100.00;94192.19;4985742;28;20197;-59
2023/04/21 03:48:28;;;;;;;1999.90;999.90;;;;;;;7.06;100.00;94182.94;4986013;28;20214;-59
2023/04/21 03:50:53;;;;;;;1999.90;999.90;;;;;;;6.99;100.00;94177.59;4985747;28;20200;-58
2023/04/21 03:53:19;;;;;;;1999.90;999.90;;;;;;;7.01;100.00;94169.84;4985606;28;20199;-58
2023/04/21 03:55:47;;;;;;;1999.90;999.90;;;;;;;7.04;100.00;94169.03;4985337;28;20204;-60
2023/04/21 03:58:14;;;;;;;1999.90;999.90;;;;;;;6.96;100.00;94162.16;4985678;28;20267;-59
2023/04/21 04:00:40;;;;;;;1999.90;999.90;;;;;;;6.96;100.00;94161.38;4985743;28;20205;-59
2023/04/21 04:03:06;;;;;;;1999.90;999.90;;;;;;;6.95;100.00;94152.47;4985469;28;20243;-59
2023/04/21 04:05:31;;;;;;;1999.90;999.90;;;;;;;6.94;100.00;94145.50;4985924;28;20204;-59
2023/04/21 04:07:57;;;;;;;1999.90;999.90;;;;;;;6.88;100.00;94139.78;4985758;28;20218;-59
2023/04/21 04:10:22;;;;;;;1999.90;999.90;;;;;;;6.82;100.00;94130.56;4969013;28;20251;-58
2023/04/21 04:12:47;;;;;;;1999.90;999.90;;;;;;;6.75;100.00;94129.91;4985369;28;20212;-59
2023/04/21 04:15:13;;;;;;;1999.90;999.90;;;;;;;6.78;100.00;94121.72;4985320;28;20219;-58
2023/04/21 04:17:39;;;;;;;1999.90;999.90;;;;;;;6.81;100.00;94131.75;4969459;28;20267;-59
2023/04/21 04:20:07;;;;;;;1999.90;999.90;;;;;;;6.71;100.00;94127.22;4985199;28;20287;-59
2023/04/21 04:22:32;;;;;;;1999.90;999.90;;;;;;;6.69;100.00;94110.63;4985184;28;20234;-59
2023/04/21 04:25:00;;;;;;;1999.90;999.90;;;;;;;6.75;100.00;94102.78;4985155;28;20216;-59
2023/04/21 04:27:26;;;;;;;1999.90;999.90;;;;;;;6.78;100.00;94096.53;4984819;28;20256;-59
2023/04/21 04:29:52;;;;;;;1999.90;999.90;;;;;;;6.67;100.00;94099.41;4984966;28;20199;-59
2023/04/21 04:32:17;;;;;;;1999.90;999.90;;;;;;;6.79;100.00;94084.50;4969322;28;20213;-59
2023/04/21 04:34:42;;;;;;;1999.90;999.90;;;;;;;6.75;100.00;94075.66;4969305;28;20178;-58
2023/04/21 04:37:09;;;;;;;1999.90;999.90;;;;;;;6.70;100.00;94065.25;4985095;28;20274;-58
2023/04/21 04:39:35;;;;;;;1999.90;999.90;;;;;;;6.79;100.00;94066.28;4985395;28;20207;-58
2023/04/21 04:42:02;;;;;;;1999.90;999.90;;;;;;;6.87;100.00;94058.78;4984869;28;20203;-58
2023/04/21 04:44:28;;;;;;;1999.90;999.90;;;;;;;6.89;100.00;94065.34;4984900;28;20271;-58
2023/04/21 04:46:53;;;;;;;1999.90;999.90;;;;;;;6.91;100.00;94067.66;4984808;28;20204;-59
2023/04/21 04:49:19;;;;;;;1999.90;999.90;;;;;;;6.95;100.00;94059.47;4968942;28;20204;-58
2023/04/21 04:51:44;;;;;;;1999.90;999.90;;;;;;;6.97;100.00;94070.66;4984817;28;20196;-60
2023/04/21 04:54:10;;;;;;;1999.90;999.90;;;;;;;6.91;100.00;94067.66;4984953;28;20203;-58
2023/04/21 04:56:36;;;;;;;1999.90;999.90;;;;;;;7.04;100.00;94065.91;4984864;28;20196;-58
2023/04/21 04:59:01;;;;;;;1999.90;999.90;;;;;;;7.10;100.00;94068.91;4985328;28;20215;-58
2023/04/21 05:01:30;;;;;;;1999.90;999.90;;;;;;;7.13;100.00;94068.81;4972876;28;20273;-58
2023/04/21 05:03:55;;;;;;;1999.90;999.90;;;;;;;7.15;100.00;94071.91;4973187;28;20168;-58
2023/04/21 05:06:22;;;;;;;1999.90;999.90;;;;;;;7.17;100.00;94074.97;4988884;28;20209;-58
2023/04/21 05:08:47;;;;;;;1999.90;999.90;;;;;;;7.14;100.00;94092.06;4988350;28;20281;-58
2023/04/21 05:11:12;;;;;;;1999.90;999.90;;;;;;;7.12;100.00;94110.72;4988926;28;20204;-58
2023/04/21 05:13:38;;;;;;;1999.90;999.90;;;;;;;7.14;100.00;94121.94;4972593;28;20225;-58
2023/04/21 05:16:04;;;;;;;1999.90;999.90;;;;;;;7.20;100.00;94128.44;4988673;28;20206;-58
2023/04/21 05:18:29;;;;;;;1999.90;999.90;;;;;;;7.24;100.00;94137.28;4972309;28;20218;-58
2023/04/21 05:20:55;;;;;;;1999.90;999.90;;;;;;;7.31;100.00;94156.19;4988215;28;20241;-58
2023/04/21 05:23:20;;;;;;;1999.90;999.90;;;;;;;7.37;100.00;94165.41;4988722;28;20207;-58
2023/04/21 05:25:46;;;;;;;1999.90;999.90;;;;;;;7.40;100.00;94186.31;4988119;28;20208;-59
2023/04/21 05:28:11;;;;;;;1999.90;999.90;;;;;;;7.47;100.00;94190.84;4988662;28;20299;-58
2023/04/21 05:30:36;;;;;;;1999.90;999.90;;;;;;;7.52;100.00;94215.59;4988904;28;20206;-58
2023/04/21 05:33:02;;;;;;;1999.90;999.90;;;;;;;7.54;100.00;94234.94;4987929;28;20220;-58
2023/04/21 05:35:30;;;;;;;1999.90;999.90;;;;;;;7.54;100.00;94278.41;4988374;28;20215;-58
2023/04/21 05:37:56;;;;;;;1999.90;999.90;;;;;;;7.57;100.00;94320.31;4971473;28;20349;-58
2023/04/21 05:40:21;;;;;;;1999.90;999.90;;;;;;;7.70;100.00;94343.78;4987918;28;20205;-58
2023/04/21 05:42:46;;;;;;;1999.90;999.90;;;;;;;7.67;100.00;94363.59;4988254;28;20195;-58
2023/04/21 05:45:12;;;;;;;1999.90;999.90;;;;;;;7.70;100.00;94384.53;4987300;28;20199;-58
2023/04/21 05:47:38;;;;;;;1999.90;999.90;;;;;;;7.94;100.00;94399.69;4987783;28;20235;-58
2023/04/21 05:50:04;;;;;;;1999.90;999.90;;;;;;;7.90;100.00;94437.03;4987784;28;20195;-58
2023/04/21 05:52:30;;;;;;;1999.90;999.90;;;;;;;8.04;100.00;94457.81;4971843;28;20199;-58
2023/04/21 05:54:58;;;;;;;1999.90;999.90;;;;;;;8.15;100.00;94474.75;4987360;28;20263;-59
2023/04/21 05:57:23;;;;;;;1999.90;999.90;;;;;;;8.25;100.00;94507.28;4987690;28;20188;-58
2023/04/21 05:59:48;;;;;;;1999.90;999.90;;;;;;;8.51;100.00;94531.00;4987494;28;20207;-59
2023/04/21 06:02:14;;;;;;;1999.90;999.90;;;;;;;9.01;100.00;94567.19;4987456;28;20200;-59
2023/04/21 06:04:39;;;;;;;1999.90;999.90;;;;;;;9.37;100.00;94619.88;4987424;28;20173;-59
2023/04/21 06:07:06;;;;;;;1999.90;999.90;;;;;;;9.98;100.00;94656.59;4987978;28;20197;-60
2023/04/21 06:09:32;;;;;;;1999.90;999.90;;;;;;;11.14;100.00;94705.44;4971634;28;20199;-59
2023/04/21 06:11:57;;;;;;;1999.90;999.90;;;;;;;12.02;100.00;94775.34;4986606;28;20236;-59
2023/04/21 06:14:22;;;;;;;1999.90;999.90;;;;;;;12.73;100.00;94838.09;4987226;28;20196;-59
2023/04/21 06:16:47;;;;;;;1999.90;999.90;;;;;;;13.38;100.00;94868.91;4971289;28;20227;-59
2023/04/21 06:19:13;;;;;;;1999.90;999.90;;;;;;;14.00;100.00;94871.03;4987211;28;20304;-60
2023/04/21 06:21:38;;;;;;;1999.90;999.90;;;;;;;14.50;100.00;94877.31;4987248;28;20192;-60
2023/04/21 06:24:04;;;;;;;1999.90;999.90;;;;;;;14.32;100.00;94876.34;4987189;28;20192;-60
2023/04/21 06:26:29;;;;;;;1999.90;999.90;;;;;;;14.49;100.00;94884.03;4987340;28;20316;-59
2023/04/21 06:28:54;;;;;;;1999.90;999.90;;;;;;;14.84;100.00;94880.16;4987532;28;20199;-60
2023/04/21 06:31:20;;;;;;;1999.90;999.90;;;;;;;15.44;100.00;94878.91;4987272;28;20264;-60
2023/04/21 06:33:45;;;;;;;1999.90;999.90;;;;;;;16.29;100.00;94882.81;4986872;28;20323;-60
2023/04/21 06:36:10;;;;;;;1999.90;999.90;;;;;;;16.80;100.00;94869.41;4986920;28;20268;-59
2023/04/21 06:38:36;;;;;;;1999.90;999.90;;;;;;;17.90;100.00;94869.03;4987052;28;20209;-60
2023/04/21 06:41:03;;;;;;;1999.90;999.90;;;;;;;18.46;100.00;94874.75;4971370;28;20196;-60
2023/04/21 06:43:28;;;;;;;1999.90;999.90;;;;;;;19.22;100.00;94874.97;4987193;28;20210;-60
2023/04/21 06:45:54;;;;;;;1999.90;999.90;;;;;;;19.80;100.00;94877.94;4987116;28;20204;-61
2023/04/21 06:48:19;;;;;;;1999.90;999.90;;;;;;;20.12;100.00;94879.84;4970555;28;20205;-60
2023/04/21 06:50:45;;;;;;;1999.90;999.90;;;;;;;19.53;100.00;94884.47;4987026;28;20193;-60
2023/04/21 06:53:11;;;;;;;1999.90;999.90;;;;;;;19.21;100.00;94882.53;4986930;28;20315;-60
2023/04/21 06:55:36;;;;;;;1999.90;999.90;;;;;;;18.45;100.00;94882.28;4986695;28;20193;-60
2023/04/21 06:58:01;;;;;;;1999.90;999.90;;;;;;;17.81;100.00;94883.63;4986761;28;20314;-60
2023/04/21 07:00:27;;;;;;;1999.90;999.90;;;;;;;16.37;100.00;94878.59;4986633;28;20189;-61
2023/04/21 07:02:52;;;;;;;1999.90;999.90;;;;;;;15.29;100.00;94879.81;4970277;28;20195;-60
2023/04/21 07:05:17;;;;;;;1999.90;999.90;;;;;;;14.84;100.00;94888.41;4986288;28;20196;-61
2023/04/21 07:07:43;;;;;;;1999.90;999.90;;;;;;;14.39;100.00;94898.88;4986796;28;20168;-60
2023/04/21 07:10:08;;;;;;;1999.90;999.90;;;;;;;13.48;100.00;94890.56;4986855;28;20204;-59
2023/04/21 07:12:34;;;;;;;1999.90;999.90;;;;;;;13.77;100.00;94890.53;4986436;28;20208;-60
2023/04/21 07:14:59;;;;;;;1999.90;999.90;;;;;;;13.77;100.00;94890.53;4986213;28;20205;-61
2023/04/21 07:17:24;;;;;;;1999.90;999.90;;;;;;;13.92;100.00;94881.47;4986081;28;20259;-61
2023/04/21 07:19:50;;;;;;;1999.90;999.90;;;;;;;14.29;100.00;94882.72;4986362;28;20211;-60
2023/04/21 07:22:15;;;;;;;1999.90;999.90;;;;;;;14.14;100.00;94876.88;4985648;28;20259;-61
2023/04/21 07:24:40;;;;;;;1999.90;999.90;;;;;;;13.13;100.00;94880.53;4985975;28;20192;-61
2023/04/21 07:27:06;;;;;;;1999.90;999.90;;;;;;;13.81;100.00;94881.00;4986095;28;20195;-61
2023/04/21 07:29:31;;;;;;;1999.90;999.90;;;;;;;14.93;100.00;94883.00;4985869;28;20199;-59
2023/04/21 07:31:57;;;;;;;1999.90;999.90;;;;;;;15.48;100.00;94868.53;4970050;28;20247;-60
2023/04/21 07:34:23;;;;;;;1999.90;999.90;;;;;;;15.52;100.00;94882.19;4970022;28;20192;-60
2023/04/21 07:36:50;;;;;;;1999.90;999.90;;;;;;;14.98;100.00;94874.19;4985634;28;20196;-61
2023/04/21 07:39:15;;;;;;;1999.90;999.90;;;;;;;15.07;100.00;94882.53;4986138;28;20188;-60
2023/04/21 07:41:40;;;;;;;1999.90;999.90;;;;;;;15.59;100.00;94868.91;4985320;28;20191;-61
2023/04/21 07:44:06;;;;;;;1999.90;999.90;;;;;;;15.61;100.00;94877.50;4986025;28;20195;-60
2023/04/21 07:46:31;;;;;;;1999.90;999.90;;;;;;;14.88;100.00;94883.56;4986395;28;20202;-60
2023/04/21 07:48:58;;;;;;;1999.90;999.90;;;;;;;15.47;100.00;94886.28;4986201;28;20242;-60
2023/04/21 07:51:26;;;;;;;1999.90;999.90;;;;;;;15.99;100.00;94883.56;4985751;28;20550;-59
2023/04/21 07:53:51;;;;;;;1999.90;999.90;;;;;;;16.32;100.00;94892.94;4986255;28;20188;-59
2023/04/21 07:56:17;;;;;;;1999.90;999.90;;;;;;;16.30;100.00;94889.88;4985517;28;20239;-59
2023/04/21 07:58:42;;;;;;;1999.90;999.90;;;;;;;16.56;100.00;94881.41;4985593;28;20212;-60
2023/04/21 08:01:08;;;;;;;1999.90;999.90;;;;;;;16.02;100.00;94895.66;4969129;28;20204;-60
2023/04/21 08:03:33;;;;;;;1999.90;999.90;;;;;;;17.43;100.00;94880.56;4985232;28;20196;-60
2023/04/21 08:05:59;;;;;;;1999.90;999.90;;;;;;;18.19;100.00;94883.88;4985192;28;20196;-61
2023/04/21 08:08:24;;;;;;;1999.90;999.90;;;;;;;17.93;100.00;94870.88;4969666;28;20252;-61
2023/04/21 08:10:50;;;;;;;1999.90;999.90;;;;;;;18.95;100.00;94883.47;4985700;28;20203;-62
2023/04/21 08:13:15;;;;;;;1999.90;999.90;;;;;;;19.51;100.00;94883.41;4985655;28;20188;-61
2023/04/21 08:15:40;;;;;;;1999.90;999.90;;;;;;;20.00;100.00;94886.41;4985586;28;20214;-61
2023/04/21 08:18:07;;;;;;;1999.90;999.90;;;;;;;21.37;100.00;94879.53;4985346;28;20212;-61
2023/04/21 08:20:32;;;;;;;1999.90;999.90;;;;;;;21.52;92.32;94880.25;4985161;28;20200;-61
2023/04/21 08:22:58;;;;;;;1999.90;999.90;;;;;;;20.93;91.04;94890.03;4985045;28;20204;-61
2023/04/21 08:25:23;;;;;;;1999.90;999.90;;;;;;;20.75;95.88;94890.22;4984868;28;20247;-61
2023/04/21 08:27:48;;;;;;;1999.90;999.90;;;;;;;20.68;95.33;94885.06;4984795;28;20196;-62
2023/04/21 08:30:14;;;;;;;1999.90;999.90;;;;;;;22.40;83.04;94886.06;4968995;28;20220;-62
2023/04/21 08:32:40;;;;;;;1999.90;999.90;;;;;;;21.11;85.81;94883.47;4985067;28;20196;-62
2023/04/21 08:35:05;;;;;;;1999.90;999.90;;;;;;;19.53;97.08;94886.50;4984487;28;20192;-61
2023/04/21 08:37:31;;;;;;;1999.90;999.90;;;;;;;19.69;100.00;94883.28;4985258;28;20188;-61
2023/04/21 08:39:56;;;;;;;1999.90;999.90;;;;;;;19.78;100.00;94886.00;4985216;28;20196;-62
2023/04/21 08:42:22;;;;;;;1999.90;999.90;;;;;;;18.94;100.00;94879.91;4984894;28;20204;-61
2023/04/21 08:44:47;;;;;;;1999.90;999.90;;;;;;;18.07;100.00;94881.28;4968938;28;20192;-62
2023/04/21 08:47:14;;;;;;;1999.90;999.90;;;;;;;17.08;100.00;94897.84;4985106;28;20240;-61
2023/04/21 08:49:41;;;;;;;1999.90;999.90;;;;;;;17.56;100.00;94883.19;4984786;28;20340;-61
2023/04/21 08:52:07;;;;;;;1999.90;999.90;;;;;;;17.46;100.00;94885.19;4984724;28;20227;-62
2023/04/21 08:54:35;;;;;;;1999.90;999.90;;;;;;;17.28;100.00;94878.84;4968678;28;20188;-61
2023/04/21 08:57:02;;;;;;;1999.90;999.90;;;;;;;17.59;100.00;94877.50;4985151;28;20192;-61
2023/04/21 08:59:27;;;;;;;1999.90;999.90;;;;;;;18.80;100.00;94874.31;4984844;28;20211;-62
2023/04/21 09:02:08;;;;;;;1999.90;999.90;;;;;;;21.07;100.00;94869.78;4985176;28;20196;-61
2023/04/21 09:04:34;;;;;;;1999.90;999.90;;;;;;;21.07;100.00;94869.78;4969100;28;20188;-62
2023/04/21 09:06:59;;;;;;;1999.90;999.90;;;;;;;22.19;87.36;94865.84;4985139;28;20215;-61
2023/04/21 09:09:25;;;;;;;1999.90;999.90;;;;;;;22.44;85.96;94865.06;4985021;28;20242;-61
2023/04/21 09:11:56;;;;;;;1999.90;999.90;;;;;;;20.23;91.82;94868.94;4968884;28;20330;-61
2023/04/21 09:14:21;;;;;;;1999.90;999.90;;;;;;;20.18;100.00;94864.03;4984560;28;20196;-60
2023/04/21 09:16:59;;;;;;;1999.90;999.90;;;;;;;19.65;100.00;94870.84;4984981;28;20242;-60
2023/04/21 09:19:26;;;;;;;1999.90;999.90;;;;;;;19.92;100.00;94851.97;4984709;28;20258;-60
2023/04/21 09:21:52;;;;;;;1999.90;999.90;;;;;;;19.66;100.00;94864.81;4984905;28;20216;-60
2023/04/21 09:24:18;;;;;;;1999.90;999.90;;;;;;;19.00;100.00;94866.97;4984490;28;20203;-60
2023/04/21 09:26:48;;;;;;;1999.90;999.90;;;;;;;19.67;100.00;94860.84;4984528;28;20192;-60
2023/04/21 09:29:14;;;;;;;1999.90;999.90;;;;;;;19.16;100.00;94863.78;4984517;28;20197;-60
2023/04/21 09:31:39;;;;;;;1999.90;999.90;;;;;;;19.11;100.00;94861.66;4984256;28;20197;-60
2023/04/21 09:34:25;;;;;;;1999.90;999.90;;;;;;;22.23;93.71;94858.06;4985182;28;20287;-60
2023/04/21 09:37:03;;;;;;;1999.90;999.90;;;;;;;20.09;98.99;94858.59;4984438;28;20207;-60
2023/04/21 09:39:30;;;;;;;1999.90;999.90;;;;;;;21.31;91.45;94856.47;4984083;28;20219;-61
2023/04/21 09:41:58;;;;;;;1999.90;999.90;;;;;;;21.37;87.64;94862.88;4984213;28;20192;-61
2023/04/21 09:44:30;;;;;;;1999.90;999.90;;;;;;;19.70;100.00;94859.13;4968101;28;20196;-60
2023/04/21 09:47:03;;;;;;;1999.90;999.90;;;;;;;21.04;95.10;94856.88;4970861;28;20192;-60
2023/04/21 09:49:30;;;;;;;1999.90;999.90;;;;;;;20.06;91.92;94859.53;4988028;28;20193;-61
2023/04/21 09:51:58;;;;;;;1999.90;999.90;;;;;;;20.13;93.26;94859.19;4987546;28;20256;-59
2023/04/21 09:54:32;;;;;;;1999.90;999.90;;;;;;;21.61;87.50;94854.31;4971655;28;20200;-59
2023/04/21 09:57:03;;;;;;;1999.90;999.90;;;;;;;22.20;80.54;94849.94;4988086;28;20187;-60
2023/04/21 09:59:35;;;;;;;1999.90;999.90;;;;;;;19.74;95.34;94854.91;4987627;28;20235;-61
2023/04/21 10:02:04;;;;;;;1999.90;999.90;;;;;;;20.35;93.83;94862.34;4987839;28;20224;-59
2023/04/21 10:04:31;;;;;;;1999.90;999.90;;;;;;;22.05;86.98;94857.63;4987354;28;20235;-60
2023/04/21 10:06:58;;;;;;;1999.90;999.90;;;;;;;20.49;91.42;94855.25;4987235;28;20235;-59
2023/04/21 10:09:30;;;;;;;1999.90;999.90;;;;;;;21.68;93.15;94843.53;4987405;28;20577;-59
2023/04/21 10:11:56;;;;;;;1999.90;999.90;;;;;;;21.31;84.04;94845.34;4987884;28;20187;-60
2023/04/21 10:14:24;;;;;;;1999.90;999.90;;;;;;;21.66;85.08;94850.84;4971553;28;20211;-60
2023/04/21 10:17:02;;;;;;;1999.90;999.90;;;;;;;20.75;96.68;94845.81;4987674;28;20172;-59
2023/04/21 10:19:27;;;;;;;1999.90;999.90;;;;;;;20.93;94.31;94842.84;4987198;28;20230;-59
2023/04/21 10:21:56;;;;;;;1999.90;999.90;;;;;;;22.13;84.55;94842.78;4987561;28;20224;-60
2023/04/21 10:24:22;;;;;;;1999.90;999.90;;;;;;;21.22;93.40;94834.41;4987160;28;20196;-59
2023/04/21 10:26:49;;;;;;;1999.90;999.90;;;;;;;22.28;87.58;94829.50;4987008;28;20267;-59
2023/04/21 10:29:15;;;;;;;1999.90;999.90;;;;;;;20.97;94.81;94835.06;4986992;28;20188;-59
2023/04/21 10:31:50;;;;;;;1999.90;999.90;;;;;;;22.30;95.93;94827.00;4987165;28;20191;-59
2023/04/21 10:34:18;;;;;;;1999.90;999.90;;;;;;;21.74;92.82;94826.94;4971205;28;20196;-59
2023/04/21 10:36:56;;;;;;;1999.90;999.90;;;;;;;21.79;96.67;94815.91;4986947;28;20196;-59
2023/04/21 10:39:35;;;;;;;1999.90;999.90;;;;;;;21.90;93.16;94826.38;4987406;28;20243;-59
2023/04/21 10:42:16;;;;;;;1999.90;999.90;;;;;;;21.95;94.24;94822.88;4987287;28;20279;-59
2023/04/21 10:44:43;;;;;;;1999.90;999.90;;;;;;;22.29;87.46;94828.25;4986874;28;20223;-59
2023/04/21 10:47:08;;;;;;;1999.90;999.90;;;;;;;22.62;86.65;94830.59;4986903;28;20196;-59
2023/04/21 10:49:38;;;;;;;1999.90;999.90;;;;;;;22.15;89.79;94820.78;4986790;28;20231;-60